Latest Weather Observations for Walpole North

IDW60801

Issued at 12:32 pm WST Wednesday 8 July 2015 (issued every 30 minutes, with the page automatically refreshed every 10 minutes)

About weather observations | Map of weather stations | Latest weather observations for WA | Other Formats
Station Details ID: 009998 Name: NORTH WALPOLE Lat: -34.95 Lon: 116.72 Height: 73.0 m
Data from the previous 72 hours. | See also: Recent months at Walpole North
Date/Time
WST
Temp
°C
App
Temp
°C
Dew
Point
Rel
Hum
%
Delta-T
°C
Wind Press
QNH
hPa
Press
MSL
hPa
Rain
since 9 am
mm
Dir
 
Spd
km/h
Gust
km/h
Spd
kts
Gust
kts
08/12:30pm 11.7 7.1 3.7 58 3.5 SSE 17 35 9 19 1025.7 1025.7 0.0
08/12:00pm 13.6 9.8 5.7 59 3.7 SSE 15 32 8 17 1025.9 1025.9 0.0
08/11:30am 11.8 7.7 4.3 60 3.4 SSE 15 28 8 15 1026.2 1026.2 0.0
08/11:00am 11.4 7.4 4.8 64 3.0 SSE 15 28 8 15 1026.3 1026.3 0.0
08/10:30am 11.2 7.2 6.5 73 2.2 SSE 17 32 9 17 1026.4 1026.4 0.0
08/10:00am 10.3 5.8 5.9 74 2.0 SSE 19 33 10 18 1026.5 1026.5 0.0
08/09:30am 10.7 6.6 6.1 73 2.1 SSE 17 46 9 25 1026.5 1026.5 0.0
08/09:00am 10.5 4.9 5.5 71 2.3 S 24 39 13 21 1025.8 1025.8 20.8
08/08:30am 9.6 4.3 5.2 74 2.0 SSW 22 39 12 21 1025.6 1025.6 20.8
08/08:00am 9.3 4.4 4.9 74 2.0 S 20 50 11 27 1025.4 1025.4 20.6
08/07:30am 9.7 3.9 4.5 70 2.3 SSW 24 43 13 23 1024.7 1024.7 20.6
08/07:00am 9.4 4.4 3.6 67 2.5 SSW 19 33 10 18 1024.3 1024.3 20.6
08/06:30am 9.3 2.4 4.5 72 2.1 SSW 30 52 16 28 1023.9 1023.9 20.6
08/06:27am 9.5 3.0 4.5 71 2.2 SSW 28 52 15 28 1023.8 1023.8 20.6
08/06:00am 9.5 3.5 5.1 74 2.0 SSW 26 44 14 24 1023.6 1023.6 20.6
08/05:35am 9.4 2.9 4.6 72 2.1 SSW 28 48 15 26 1023.3 1023.3 20.4
08/05:30am 9.5 4.1 4.3 70 2.3 SW 22 41 12 22 1023.1 1023.1 20.4
08/05:13am 10.1 3.6 4.7 69 2.4 SSW 28 61 15 33 1022.8 1022.8 20.4
08/05:00am 10.1 5.7 4.5 68 2.5 SSW 17 28 9 15 1022.7 1022.7 20.4
08/04:37am 9.6 3.1 4.8 72 2.2 SSW 28 48 15 26 1022.8 1022.8 20.4
08/04:30am 9.6 3.7 5.6 76 1.8 SSW 26 44 14 24 1022.6 1022.6 20.4
08/04:00am 9.9 1.5 5.7 75 1.9 SSW 39 63 21 34 1022.4 1022.4 20.4
08/03:30am 9.6 2.9 5.6 76 1.8 SSW 30 52 16 28 1022.2 1022.2 20.4
08/03:05am 10.5 3.4 5.7 72 2.2 SSW 32 50 17 27 1022.0 1022.0 20.4
08/03:00am 10.4 2.8 5.6 72 2.2 SSW 35 52 19 28 1021.8 1021.8 20.4
08/02:34am 10.3 3.4 6.5 77 1.8 SSW 32 56 17 30 1021.5 1021.5 20.4
08/02:30am 10.3 3.4 6.6 78 1.7 SSW 32 46 17 25 1021.5 1021.5 20.4
08/02:17am 10.2 4.2 7.1 81 1.5 S 28 52 15 28 1021.5 1021.5 20.4
08/02:00am 10.0 4.5 7.4 84 1.2 SSW 26 41 14 22 1021.1 1021.1 20.4
08/01:30am 10.1 6.4 8.0 87 1.0 SW 17 39 9 21 1020.6 1020.6 20.2
08/01:00am 9.5 5.1 7.6 88 0.9 SW 20 43 11 23 1020.5 1020.5 20.2
08/12:30am 9.3 6.7 7.9 91 0.7 SSW 11 20 6 11 1020.2 1020.2 19.8
08/12:00am 9.9 6.5 9.1 95 0.4 SW 17 44 9 24 1020.4 1020.4 19.6
 
Date/Time
WST
Temp
°C
App
Temp
°C
Dew
Point
Rel
Hum
%
Delta-T
°C
Wind Press
QNH
hPa
Press
MSL
hPa
Rain
since 9 am
mm
Dir
 
Spd
km/h
Gust
km/h
Spd
kts
Gust
kts
07/11:30pm 10.0 6.8 9.9 99 0.1 SSW 17 33 9 18 1020.2 1020.2 19.6
07/11:00pm 9.7 8.3 9.6 99 0.0 WSW 7 11 4 6 1020.0 1020.0 19.6
07/10:30pm 9.9 8.6 9.8 99 0.1 WSW 7 11 4 6 1019.6 1019.7 19.6
07/10:00pm 10.4 8.8 10.2 99 0.1 WSW 9 17 5 9 1019.5 1019.6 18.6
07/09:30pm 10.6 9.1 10.4 99 0.1 SSW 9 15 5 8 1019.5 1019.6 17.8
07/09:00pm 10.5 9.3 10.3 99 0.1 W 7 9 4 5 1019.1 1019.2 17.8
07/08:30pm 10.6 10.4 10.4 99 0.1 WNW 2 9 1 5 1019.0 1019.1 17.2
07/08:00pm 10.5 8.9 10.3 99 0.1 SSW 9 15 5 8 1018.7 1018.8 16.8
07/07:30pm 10.6 8.7 10.4 99 0.1 SSW 11 15 6 8 1018.6 1018.7 16.4
07/07:00pm 11.0 9.2 10.8 99 0.1 SSW 11 19 6 10 1018.3 1018.4 16.0
07/06:30pm 11.4 9.7 11.2 99 0.1 SSW 11 19 6 10 1017.9 1018.0 15.0
07/06:00pm 11.1 9.7 10.9 99 0.1 WNW 9 13 5 7 1017.3 1017.4 13.4
07/05:30pm 11.1 8.9 10.9 99 0.1 NW 13 17 7 9 1017.1 1017.2 13.4
07/05:00pm 11.3 11.7 11.1 99 0.1 CALM 0 0 0 0 1016.9 1017.0 13.4
07/04:30pm 11.4 11.4 11.2 99 0.1 SW 2 9 1 5 1016.8 1016.9 12.8
07/04:00pm 11.8 9.8 11.6 99 0.1 S 13 20 7 11 1016.4 1016.4 12.4
07/03:30pm 12.1 11.0 11.9 99 0.1 S 9 15 5 8 1016.2 1016.2 11.0
07/03:00pm 13.0 11.4 12.7 98 0.2 WNW 13 20 7 11 1015.6 1015.6 9.6
07/02:30pm 13.4 13.1 13.2 99 0.1 W 7 11 4 6 1015.4 1015.4 9.4
07/02:00pm 12.8 11.5 12.6 99 0.1 W 11 19 6 10 1015.6 1015.6 9.4
07/01:30pm 13.3 11.8 13.1 99 0.1 WSW 13 20 7 11 1015.6 1015.6 9.2
07/01:00pm 13.5 12.8 13.3 99 0.1 WSW 9 15 5 8 1015.9 1015.9 8.2
07/12:30pm 13.9 13.4 13.7 99 0.1 SW 9 11 5 6 1015.8 1015.8 8.0
07/12:00pm 13.7 13.1 13.5 99 0.1 WSW 9 24 5 13 1016.1 1016.1 7.8
07/11:30am 13.8 12.9 13.6 99 0.1 SSW 11 15 6 8 1016.2 1016.2 7.2
07/11:00am 14.0 13.0 13.5 97 0.3 SW 11 20 6 11 1016.5 1016.5 5.8
07/10:30am 14.5 12.8 13.5 94 0.6 WNW 15 24 8 13 1016.2 1016.2 0.4
07/10:00am 14.4 11.4 12.6 89 1.0 NW 20 28 11 15 1016.1 1016.1 0.2
07/09:30am 14.6 10.8 12.5 87 1.1 NW 24 35 13 19 1015.7 1015.7 0.2
07/09:25am 14.5 9.9 12.2 86 1.3 NW 28 44 15 24 1015.6 1015.6 0.2
07/09:00am 14.4 11.3 12.1 86 1.2 NW 20 26 11 14 1015.6 1015.6 1.2
07/08:30am 13.5 11.2 11.7 89 1.0 NW 15 22 8 12 1015.8 1015.8 1.2
07/08:00am 13.4 10.6 11.3 87 1.1 WNW 17 24 9 13 1015.8 1015.8 1.2
07/07:30am 13.3 11.3 11.4 88 1.0 NW 13 22 7 12 1015.7 1015.7 1.2
07/07:00am 13.0 9.8 11.4 90 0.8 NNW 19 28 10 15 1015.4 1015.4 1.2
07/06:30am 12.5 9.1 10.6 88 1.0 NNW 19 24 10 13 1015.6 1015.6 1.2
07/06:00am 13.3 9.5 9.7 79 1.8 NW 20 30 11 16 1015.6 1015.6 1.2
07/05:30am 13.0 9.3 9.4 79 1.8 NW 19 28 10 15 1015.5 1015.5 1.2
07/05:00am 13.4 9.2 9.6 78 1.9 NW 22 30 12 16 1015.6 1015.6 1.2
07/04:30am 13.3 9.6 9.5 78 1.9 NNW 19 32 10 17 1015.3 1015.3 1.2
07/04:00am 13.3 9.8 10.1 81 1.7 NNW 19 26 10 14 1015.7 1015.7 1.2
07/03:30am 12.9 9.3 9.9 82 1.5 NNW 19 26 10 14 1015.9 1015.9 1.2
07/03:00am 13.1 10.0 10.3 83 1.5 NNW 17 24 9 13 1016.1 1016.1 1.2
07/02:30am 13.7 10.4 10.9 83 1.5 NW 19 26 10 14 1016.1 1016.1 1.2
07/02:00am 13.5 10.3 11.4 87 1.1 NW 19 32 10 17 1016.1 1016.1 1.2
07/01:30am 13.4 10.7 11.6 89 1.0 NW 17 26 9 14 1016.4 1016.4 1.2
07/01:00am 13.7 10.2 12.3 91 0.8 NW 22 32 12 17 1016.5 1016.5 1.2
07/12:30am 13.4 10.7 12.8 96 0.3 NW 19 24 10 13 1016.6 1016.6 1.2
07/12:00am 13.5 11.2 13.0 97 0.3 NW 17 20 9 11 1016.7 1016.7 1.2
 
Date/Time
WST
Temp
°C
App
Temp
°C
Dew
Point
Rel
Hum
%
Delta-T
°C
Wind Press
QNH
hPa
Press
MSL
hPa
Rain
since 9 am
mm
Dir
 
Spd
km/h
Gust
km/h
Spd
kts
Gust
kts
06/11:30pm 13.6 11.4 13.4 99 0.1 NNW 17 26 9 14 1016.9 1017.0 1.2
06/11:00pm 13.8 11.7 13.6 99 0.1 NW 17 20 9 11 1017.1 1017.2 1.2
06/10:30pm 13.8 12.5 13.6 99 0.1 NNW 13 19 7 10 1017.4 1017.5 1.2
06/10:00pm 13.5 12.1 13.3 99 0.1 NNW 13 17 7 9 1017.3 1017.4 1.2
06/09:30pm 13.6 13.3 13.4 99 0.1 NNW 7 11 4 6 1017.6 1017.7 1.2
06/09:00pm 13.7 14.4 13.5 99 0.1 NW 2 7 1 4 1017.8 1017.9 1.2
06/08:30pm 14.0 13.5 13.8 99 0.1 NNW 9 13 5 7 1017.7 1017.8 1.2
06/08:00pm 14.3 13.9 14.1 99 0.1 NW 9 13 5 7 1017.9 1018.0 1.0
06/07:30pm 14.4 14.0 14.1 98 0.2 NW 9 13 5 7 1017.7 1017.8 1.0
06/07:00pm 14.4 13.1 13.6 95 0.4 WNW 13 17 7 9 1017.6 1017.7 1.0
06/06:30pm 14.8 12.6 13.2 90 0.9 WNW 17 26 9 14 1017.3 1017.4 0.8
06/06:00pm 15.6 14.2 13.3 86 1.3 NNW 13 22 7 12 1016.9 1017.0 0.0
06/05:30pm 15.3 13.8 13.0 86 1.3 N 13 20 7 11 1016.9 1017.0 0.0
06/05:00pm 15.5 13.9 12.8 84 1.5 N 13 20 7 11 1016.6 1016.6 0.0
06/04:30pm 16.1 14.6 13.0 82 1.7 NNW 13 20 7 11 1016.6 1016.6 0.0
06/04:00pm 16.1 15.0 13.0 82 1.7 NNW 11 26 6 14 1016.7 1016.7 0.0
06/03:30pm 16.3 14.5 13.2 82 1.7 NNW 15 24 8 13 1016.9 1017.0 0.0
06/03:00pm 16.2 14.6 12.9 81 1.8 N 13 20 7 11 1016.9 1017.0 0.0
06/02:30pm 16.4 14.5 12.9 80 2.0 NNW 15 26 8 14 1016.7 1016.7 0.0
06/02:00pm 16.8 14.7 13.7 82 1.8 NNW 17 24 9 13 1016.8 1016.9 0.0
06/01:30pm 16.4 14.6 12.2 76 2.3 NNW 13 28 7 15 1017.2 1017.3 0.0
06/01:00pm 16.6 14.2 12.6 77 2.2 NNW 17 33 9 18 1017.6 1017.7 0.0
06/12:30pm 17.0 14.8 12.1 73 2.7 NNW 15 28 8 15 1017.8 1017.9 0.0
06/12:00pm 17.1 15.0 12.4 74 2.6 NNW 15 24 8 13 1018.3 1018.4 0.0
06/11:30am 17.1 14.8 11.8 71 2.9 NNW 15 24 8 13 1018.8 1018.9 0.0
06/11:00am 16.6 14.2 11.5 72 2.8 N 15 28 8 15 1019.2 1019.3 0.0
06/10:30am 15.9 14.0 11.7 76 2.3 N 13 22 7 12 1019.5 1019.6 0.0
06/10:00am 15.0 13.1 10.6 75 2.3 N 11 20 6 11 1019.7 1019.8 0.0
06/09:30am 14.5 12.4 9.7 73 2.5 NNE 11 19 6 10 1019.7 1019.8 0.0
06/09:00am 13.5 11.6 9.0 74 2.3 N 9 19 5 10 1019.7 1019.8 -
06/08:30am 12.7 10.8 9.0 78 1.9 N 9 17 5 9 1019.7 1019.8 -
06/08:00am 11.7 10.3 9.6 87 1.1 N 7 17 4 9 1019.6 1019.7 -
06/07:30am 9.9 9.5 8.2 89 0.8 CALM 0 0 0 0 1019.5 1019.6 -
06/07:00am 9.7 9.2 7.8 88 0.9 CALM 0 0 0 0 1019.3 1019.4 0.0
06/06:30am 9.2 8.6 7.3 88 0.9 CALM 0 0 0 0 1019.1 1019.2 0.0
06/06:00am 9.6 9.0 7.5 87 1.0 CALM 0 0 0 0 1019.1 1019.2 0.0
06/05:30am 10.0 9.1 7.8 86 1.1 NW 2 7 1 4 1019.1 1019.2 0.0
06/05:00am 9.8 8.7 7.1 83 1.3 NNW 2 7 1 4 1019.1 1019.2 0.0
06/04:30am 11.0 8.7 7.3 78 1.8 NW 9 13 5 7 1019.1 1019.2 0.0
06/04:00am 13.0 10.3 9.1 77 2.0 NW 13 24 7 13 1019.0 1019.1 0.0
06/03:30am 11.9 9.2 8.9 82 1.5 NW 13 20 7 11 1019.2 1019.3 0.0
06/03:00am 12.3 8.5 9.1 81 1.6 NNW 19 26 10 14 1019.2 1019.3 0.0
06/02:30am 10.6 8.5 8.2 85 1.2 WNW 9 13 5 7 1019.3 1019.4 0.0
06/02:00am 10.6 8.9 8.4 86 1.1 NW 7 13 4 7 1019.4 1019.5 0.0
06/01:30am 10.8 9.2 8.6 86 1.1 NW 7 11 4 6 1019.5 1019.6 0.0
06/01:00am 10.9 10.6 8.5 85 1.2 CALM 0 0 0 0 1019.6 1019.7 0.0
06/12:30am 11.6 10.0 8.8 83 1.4 NW 7 11 4 6 1019.7 1019.8 0.0
06/12:00am 12.0 9.1 9.6 85 1.2 NNW 15 19 8 10 1019.9 1019.9 0.0
 
Date/Time
WST
Temp
°C
App
Temp
°C
Dew
Point
Rel
Hum
%
Delta-T
°C
Wind Press
QNH
hPa
Press
MSL
hPa
Rain
since 9 am
mm
Dir
 
Spd
km/h
Gust
km/h
Spd
kts
Gust
kts
05/11:30pm 11.2 8.5 9.1 87 1.1 NW 13 20 7 11 1020.1 1020.1 0.0
05/11:00pm 11.0 8.3 9.1 88 0.9 NW 13 17 7 9 1020.2 1020.2 0.0
05/10:30pm 10.7 9.1 8.6 87 1.0 NW 7 11 4 6 1020.2 1020.2 0.0
05/10:00pm 11.8 9.9 9.0 83 1.4 NNW 9 13 5 7 1020.3 1020.3 0.0
05/09:30pm 12.9 10.4 9.7 81 1.6 NNW 13 19 7 10 1020.1 1020.1 0.0
05/09:00pm 12.6 9.8 8.5 76 2.0 NNW 13 24 7 13 1020.1 1020.1 0.0
05/08:30pm 12.3 10.9 9.0 80 1.7 NNW 6 17 3 9 1020.2 1020.2 0.0
05/08:00pm 11.7 11.2 7.8 77 1.9 CALM 0 0 0 0 1020.1 1020.1 0.0
05/07:30pm 12.4 11.3 8.3 76 2.0 NNW 4 11 2 6 1020.2 1020.2 0.0
05/07:00pm 12.9 11.3 8.2 73 2.3 NNW 6 9 3 5 1020.1 1020.1 0.0
05/06:30pm 13.8 11.5 9.0 73 2.4 NNW 11 13 6 7 1019.9 1019.9 0.0
05/06:00pm 14.0 12.2 9.6 75 2.3 NW 9 13 5 7 1019.6 1019.7 0.0
05/05:30pm 14.1 12.4 9.7 75 2.3 WNW 9 11 5 6 1019.6 1019.7 0.0
05/05:00pm 14.1 12.7 9.7 75 2.3 WNW 7 11 4 6 1019.5 1019.6 0.0
05/04:30pm 14.3 12.5 9.5 73 2.5 WNW 9 11 5 6 1019.4 1019.5 0.0
05/04:00pm 15.4 13.4 10.2 71 2.7 WNW 11 15 6 8 1019.3 1019.4 0.0
05/03:30pm 15.2 12.3 9.8 70 2.8 NW 15 20 8 11 1019.1 1019.2 0.0
05/03:00pm 16.3 14.0 10.6 69 3.0 NW 13 22 7 12 1019.0 1019.1 0.0
05/02:30pm 15.8 12.5 9.7 67 3.2 NW 17 24 9 13 1018.8 1018.9 0.0
05/02:00pm 16.2 13.3 9.6 65 3.4 NW 15 20 8 11 1018.8 1018.9 0.0
05/01:30pm 15.2 12.8 10.2 72 2.6 WNW 13 19 7 10 1019.1 1019.2 0.0
05/01:00pm 16.1 13.2 9.8 66 3.3 WNW 15 20 8 11 1019.2 1019.3 0.0

Other Formats:

Comma delimited format used in spreadsheet applications
http://www.bom.gov.au/fwo/IDW60801/IDW60801.95647.axf

JavaScript Object Notation format (JSON) in row-major order
http://www.bom.gov.au/fwo/IDW60801/IDW60801.95647.json